• Join FlightAware (Why Join?)
  • Login
  • US Flag 
03:57AM EST


 

Airport Tracker/Info


-or-


 

Live Flight TrackerFlight Track Log ✈ EJA396 ✈ 12-May-2014 ✈ KSDL - KAPA

Flight Track Log - Related Links

Times and Time Zones

All times are in EDT time to prevent confusion due to time zone crossing. See the EJA396 flight status page for this flight to view local times or setup timezone preferences in your user account.

Time Position Orientation Groundspeed Altitude Reporting Facility
EDT Latitude Longitude Course Direction KTS MPH feet Rate Location/Type
10:34AM 33.6333 -111.9000 311° West 140 161 2,400  Level Phoenix TRACON
10:35AM 33.6433 -111.9139 311° West 137 158 3,000 1,800 Climbing Albuquerque Center
10:36AM 33.6367 -111.9983 265° West 231 266 5,300 2,220 Climbing Albuquerque Center
10:37AM 33.6783 -111.9925 North 189 217 7,600 3,000 Climbing Albuquerque Center
10:38AM 33.7286 -111.9347 44° Northeast 249 287 11,500 3,840 Climbing Albuquerque Center
10:39AM 33.7847 -111.8661 45° Northeast 290 334 15,600 4,020 Climbing Albuquerque Center
10:40AM 33.8733 -111.8192 24° Northeast 300 345 19,900 3,660 Climbing Albuquerque Center
10:41AM 33.9647 -111.7722 23° Northeast 330 380 23,200 2,880 Climbing Albuquerque Center
10:42AM 34.0567 -111.7264 22° Northeast 355 409 25,900 2,460 Climbing Albuquerque Center
10:43AM 34.1633 -111.6839 18° North 372 428 28,300 1,800 Climbing Albuquerque Center
10:44AM 34.2700 -111.6442 17° North 399 459 29,700 1,500 Climbing Albuquerque Center
10:45AM 34.3808 -111.5994 18° North 414 476 31,500 1,740 Climbing Albuquerque Center
10:46AM 34.4928 -111.5558 18° North 420 483 33,300 1,740 Climbing Albuquerque Center
10:47AM 34.5894 -111.4703 36° Northeast 436 502 35,100 1,560 Climbing Albuquerque Center
10:48AM 34.6706 -111.3544 50° Northeast 446 513 36,600 900 Climbing Albuquerque Center
10:49AM 34.7536 -111.2364 49° Northeast 454 522 37,000 180 Climbing Albuquerque Center
10:50AM 34.8600 -111.0839 50° Northeast 485 558 37,000  Level Albuquerque Center
10:51AM 34.9486 -110.9564 50° Northeast 491 565 37,000  Level Albuquerque Center
10:52AM 35.0350 -110.8314 50° Northeast 487 560 37,000  Level Albuquerque Center
10:53AM 35.1219 -110.7019 51° Northeast 473 544 37,000  Level Albuquerque Center
10:55AM 35.2119 -110.5639 51° Northeast 467 537 37,000  Level Albuquerque Center
10:56AM 35.2869 -110.4469 52° Northeast 463 533 37,000  Level Albuquerque Center
10:57AM 35.3747 -110.3097 52° Northeast 462 532 37,000  Level Albuquerque Center
10:58AM 35.4494 -110.1897 53° Northeast 461 531 37,000  Level Albuquerque Center
10:59AM 35.5275 -110.0725 51° Northeast 461 531 37,000  Level Albuquerque Center
11:00AM 35.6147 -109.9333 52° Northeast 461 531 37,000  Level Albuquerque Center
11:01AM 35.6861 -109.8189 52° Northeast 446 513 37,000  Level Albuquerque Center
11:02AM 35.7689 -109.6903 52° Northeast 434 499 37,000  Level Albuquerque Center
11:03AM 35.8397 -109.5764 52° Northeast 436 502 37,000  Level Albuquerque Center
11:03AM 35.8892 -109.4972 52° Northeast 449 517 37,000  Level Denver Center
11:04AM 35.9775 -109.3569 52° Northeast 460 529 37,000  Level Denver Center
11:05AM 36.0525 -109.2364 52° Northeast 460 529 37,000  Level Denver Center
11:06AM 36.1289 -109.1139 52° Northeast 461 531 37,000  Level Denver Center
11:08AM 36.2192 -108.9689 52° Northeast 465 535 37,000  Level Denver Center
11:09AM 36.2961 -108.8436 53° Northeast 466 536 37,000  Level Denver Center
11:10AM 36.3850 -108.6978 53° Northeast 467 537 37,000  Level Denver Center
11:11AM 36.4619 -108.5728 53° Northeast 469 540 37,000  Level Denver Center
11:12AM 36.5367 -108.4481 53° Northeast 469 540 37,000  Level Denver Center
11:13AM 36.6253 -108.3028 53° Northeast 470 541 37,000  Level Denver Center
11:14AM 36.7003 -108.1783 53° Northeast 470 541 37,000  Level Denver Center
11:15AM 36.7961 -108.0431 48° Northeast 469 540 37,000  Level Denver Center
11:16AM 36.8847 -107.9372 44° Northeast 462 532 37,000  Level Denver Center
11:17AM 36.9875 -107.8142 44° Northeast 461 531 37,000  Level Denver Center
11:18AM 37.0772 -107.7089 43° Northeast 461 531 37,000  Level Denver Center
11:19AM 37.1811 -107.5853 43° Northeast 461 531 37,000  Level Denver Center
11:20AM 37.2692 -107.4778 44° Northeast 461 531 37,000  Level Denver Center
11:21AM 37.3586 -107.3714 43° Northeast 462 532 37,000  Level Denver Center
11:22AM 37.4619 -107.2464 44° Northeast 462 532 37,000  Level Denver Center
11:23AM 37.5503 -107.1386 44° Northeast 462 532 37,000  Level Denver Center
11:24AM 37.6542 -107.0133 44° Northeast 462 532 37,000  Level Denver Center
11:25AM 37.7419 -106.9050 44° Northeast 462 532 37,000  Level Denver Center
11:26AM 37.8364 -106.7892 44° Northeast 461 531 37,000  Level Denver Center
11:27AM 37.9383 -106.6614 45° Northeast 462 532 37,000 -300 Level Denver Center
11:29AM 38.0290 -106.5262 45° Northeast  Level FlightAware Approximate
11:29AM 38.1303 -106.4258 45° Northeast 462 532 36,200  Level Denver Center
11:30AM 38.2247 -106.3072 45° Northeast 472 543 35,200 -600 Descending Denver Center
11:31AM 38.3203 -106.1886 44° Northeast 480 552 35,000 -240 Descending Denver Center
11:32AM 38.4103 -106.0764 44° Northeast 479 551 34,800 -1,560 Descending Denver Center
11:33AM 38.5358 -105.9475 39° Northeast 479 551 31,800 -2,640 Descending Denver Center
11:34AM 38.6378 -105.8425 39° Northeast 481 554 29,400 -2,340 Descending Denver Center
11:35AM 38.7297 -105.7472 39° Northeast 433 498 27,100 -2,280 Descending Denver Center
11:36AM 38.8194 -105.6447 42° Northeast 427 491 24,800 -2,280 Descending Denver Center
11:37AM 38.9078 -105.5381 43° Northeast 431 496 22,500 -2,220 Descending Denver Center
11:39AM 38.9908 -105.4350 44° Northeast 430 495 20,300 -2,280 Descending Denver Center
11:40AM 39.0889 -105.3158 43° Northeast 407 468 17,800 -2,280 Descending Denver Center
11:41AM 39.1689 -105.2186 43° Northeast 392 451 15,600 -2,040 Descending Denver Center
11:42AM 39.2172 -105.1100 60° Northeast 358 412 13,700 -1,980 Descending Denver Center
11:43AM 39.2503 -104.9897 70° East 332 382 11,600 -1,440 Descending Denver Center
11:44AM 39.2908 -104.8958 61° Northeast 302 348 10,800 -1,140 Descending Denver Center
11:45AM 39.3456 -104.8533 31° Northeast 227 261 9,300 -1,140 Descending Denver Center
11:46AM 39.4014 -104.8447 North 187 215 8,500 -540 Descending Denver Center
11:47AM 39.4414 -104.8458 359° North 147 169 8,200 -480 Descending Denver Center
11:48AM 39.4700 -104.8467 359° North 103 119 7,600 -540 Descending Denver Center
11:49AM 39.4986 -104.8483 357° North 103 119 7,100 -540 Descending Denver Center
11:50AM 39.5269 -104.8492 359° North 103 119 6,500 -540 Descending Denver Center
11:51AM 39.5561 -104.8500 359° North 103 119 6,000 -540 Descending Denver Center
11:53AM 39.5667 -104.8333 North  Level FlightAware Approximate
12:00PM 39.5701 -104.8493 North  Level Estimated
12:01PM 39.5701 -104.8493 106° East  Level Estimated